Terminal Aerodrome Forecast
Issued by NWS

Home | Current Version | Previous Version | Text Only | Print | Product List | Glossary On
Versions: 1 2 3 4 5 6 7 8 9 10 11 12 13 14 15 16 17 18
281
FTUS43 KPAH 291120
TAFCGI
TAF
KCGI 291120Z 2912/3012 05006KT P6SM SCT100 BKN250
     FM291500 07007KT P6SM SCT050 BKN100
     FM292100 08008KT P6SM VCSH SCT025 OVC050
     FM300400 13010KT 4SM -SHRA OVC025
     FM300800 15012G20KT 3SM -SHRA BR OVC020=

USA.gov is the U.S. government's official web portal to all federal, state and local government web resources and services.